sensor_id;sensor_type;location;lat;lon;timestamp;temperature;humidity
28823;DHT22;15961;54.678;9.110;2022-07-23T00:00:52;14.20;99.90
28823;DHT22;15961;54.678;9.110;2022-07-23T00:03:18;14.10;99.90
28823;DHT22;15961;54.678;9.110;2022-07-23T00:05:43;14.20;99.90
28823;DHT22;15961;54.678;9.110;2022-07-23T00:08:09;14.10;99.90
28823;DHT22;15961;54.678;9.110;2022-07-23T00:10:34;14.20;99.90
28823;DHT22;15961;54.678;9.110;2022-07-23T00:13:00;14.10;99.90
28823;DHT22;15961;54.678;9.110;2022-07-23T00:15:26;14.10;99.90
28823;DHT22;15961;54.678;9.110;2022-07-23T00:17:52;14.20;99.90
28823;DHT22;15961;54.678;9.110;2022-07-23T00:20:18;14.10;99.90
28823;DHT22;15961;54.678;9.110;2022-07-23T00:22:51;14.20;99.90
28823;DHT22;15961;54.678;9.110;2022-07-23T00:25:17;14.10;99.90
28823;DHT22;15961;54.678;9.110;2022-07-23T00:27:43;14.10;99.90
28823;DHT22;15961;54.678;9.110;2022-07-23T00:30:10;14.10;99.90
28823;DHT22;15961;54.678;9.110;2022-07-23T00:32:53;14.10;99.90
28823;DHT22;15961;54.678;9.110;2022-07-23T00:35:26;14.10;99.90
28823;DHT22;15961;54.678;9.110;2022-07-23T00:37:51;14.10;99.90
28823;DHT22;15961;54.678;9.110;2022-07-23T00:40:17;14.10;99.90
28823;DHT22;15961;54.678;9.110;2022-07-23T00:42:43;14.10;99.90
28823;DHT22;15961;54.678;9.110;2022-07-23T00:45:09;14.10;99.90
28823;DHT22;15961;54.678;9.110;2022-07-23T00:47:35;14.10;99.90
28823;DHT22;15961;54.678;9.110;2022-07-23T00:50:02;14.10;99.90
28823;DHT22;15961;54.678;9.110;2022-07-23T00:52:28;14.10;99.90
28823;DHT22;15961;54.678;9.110;2022-07-23T00:54:53;14.10;99.90
28823;DHT22;15961;54.678;9.110;2022-07-23T00:57:19;14.10;99.90
28823;DHT22;15961;54.678;9.110;2022-07-23T00:59:45;14.10;99.90
28823;DHT22;15961;54.678;9.110;2022-07-23T01:02:10;14.10;99.90
28823;DHT22;15961;54.678;9.110;2022-07-23T01:04:36;14.10;99.90
28823;DHT22;15961;54.678;9.110;2022-07-23T01:07:01;14.00;99.90
28823;DHT22;15961;54.678;9.110;2022-07-23T01:09:27;14.00;99.90
28823;DHT22;15961;54.678;9.110;2022-07-23T01:11:55;14.00;99.90
28823;DHT22;15961;54.678;9.110;2022-07-23T01:14:21;14.00;99.90
28823;DHT22;15961;54.678;9.110;2022-07-23T01:16:48;14.00;99.90
28823;DHT22;15961;54.678;9.110;2022-07-23T01:19:15;14.00;99.90
28823;DHT22;15961;54.678;9.110;2022-07-23T01:21:43;14.00;99.90
28823;DHT22;15961;54.678;9.110;2022-07-23T01:24:10;14.00;99.90
28823;DHT22;15961;54.678;9.110;2022-07-23T01:26:37;14.00;99.90
28823;DHT22;15961;54.678;9.110;2022-07-23T01:29:03;14.00;99.90
28823;DHT22;15961;54.678;9.110;2022-07-23T01:31:30;14.00;99.90
28823;DHT22;15961;54.678;9.110;2022-07-23T01:33:55;14.00;99.90
28823;DHT22;15961;54.678;9.110;2022-07-23T01:36:21;14.00;99.90
28823;DHT22;15961;54.678;9.110;2022-07-23T01:38:47;14.00;99.90
28823;DHT22;15961;54.678;9.110;2022-07-23T01:41:13;14.00;99.90
28823;DHT22;15961;54.678;9.110;2022-07-23T01:43:38;14.00;99.90
28823;DHT22;15961;54.678;9.110;2022-07-23T01:46:04;13.90;99.90
28823;DHT22;15961;54.678;9.110;2022-07-23T01:48:30;13.90;99.90
28823;DHT22;15961;54.678;9.110;2022-07-23T01:50:55;14.00;99.90
28823;DHT22;15961;54.678;9.110;2022-07-23T01:53:21;14.00;99.90
28823;DHT22;15961;54.678;9.110;2022-07-23T01:55:46;14.00;99.90
28823;DHT22;15961;54.678;9.110;2022-07-23T01:58:12;14.00;99.90
28823;DHT22;15961;54.678;9.110;2022-07-23T02:00:37;14.00;99.90
28823;DHT22;15961;54.678;9.110;2022-07-23T02:03:03;14.00;99.90
28823;DHT22;15961;54.678;9.110;2022-07-23T02:05:29;14.00;99.90
28823;DHT22;15961;54.678;9.110;2022-07-23T02:07:56;14.00;99.90
28823;DHT22;15961;54.678;9.110;2022-07-23T02:10:22;14.00;99.90
28823;DHT22;15961;54.678;9.110;2022-07-23T02:12:48;14.00;99.90
28823;DHT22;15961;54.678;9.110;2022-07-23T02:15:13;14.00;99.90
28823;DHT22;15961;54.678;9.110;2022-07-23T02:17:40;14.00;99.90
28823;DHT22;15961;54.678;9.110;2022-07-23T02:20:06;14.10;99.90
28823;DHT22;15961;54.678;9.110;2022-07-23T02:22:32;14.00;99.90
28823;DHT22;15961;54.678;9.110;2022-07-23T02:24:58;14.00;99.90
28823;DHT22;15961;54.678;9.110;2022-07-23T02:27:23;14.10;99.90
28823;DHT22;15961;54.678;9.110;2022-07-23T02:29:49;14.00;99.90
28823;DHT22;15961;54.678;9.110;2022-07-23T02:32:15;14.00;99.90
28823;DHT22;15961;54.678;9.110;2022-07-23T02:34:41;14.00;99.90
28823;DHT22;15961;54.678;9.110;2022-07-23T02:37:06;14.00;99.90
28823;DHT22;15961;54.678;9.110;2022-07-23T02:39:34;13.90;99.90
28823;DHT22;15961;54.678;9.110;2022-07-23T02:41:59;14.10;99.90
28823;DHT22;15961;54.678;9.110;2022-07-23T02:44:25;14.00;99.90
28823;DHT22;15961;54.678;9.110;2022-07-23T02:46:51;14.00;99.90
28823;DHT22;15961;54.678;9.110;2022-07-23T02:49:16;14.00;99.90
28823;DHT22;15961;54.678;9.110;2022-07-23T02:51:42;14.00;99.90
28823;DHT22;15961;54.678;9.110;2022-07-23T02:54:08;14.10;99.90
28823;DHT22;15961;54.678;9.110;2022-07-23T02:56:33;14.00;99.90
28823;DHT22;15961;54.678;9.110;2022-07-23T02:58:59;14.00;99.90
28823;DHT22;15961;54.678;9.110;2022-07-23T03:01:25;14.00;99.90
28823;DHT22;15961;54.678;9.110;2022-07-23T03:03:51;14.00;99.90
28823;DHT22;15961;54.678;9.110;2022-07-23T03:06:16;14.00;99.90
28823;DHT22;15961;54.678;9.110;2022-07-23T03:08:42;14.00;99.90
28823;DHT22;15961;54.678;9.110;2022-07-23T03:11:08;14.00;99.90
28823;DHT22;15961;54.678;9.110;2022-07-23T03:13:37;14.00;99.90
28823;DHT22;15961;54.678;9.110;2022-07-23T03:16:03;14.00;99.90
28823;DHT22;15961;54.678;9.110;2022-07-23T03:18:28;14.00;99.90
28823;DHT22;15961;54.678;9.110;2022-07-23T03:20:54;14.00;99.90
28823;DHT22;15961;54.678;9.110;2022-07-23T03:23:19;13.90;99.90
28823;DHT22;15961;54.678;9.110;2022-07-23T03:25:45;13.90;99.90
28823;DHT22;15961;54.678;9.110;2022-07-23T03:28:16;14.00;99.90
28823;DHT22;15961;54.678;9.110;2022-07-23T03:30:43;14.00;99.90
28823;DHT22;15961;54.678;9.110;2022-07-23T03:33:08;14.00;99.90
28823;DHT22;15961;54.678;9.110;2022-07-23T03:35:34;14.00;99.90
28823;DHT22;15961;54.678;9.110;2022-07-23T03:38:00;14.00;99.90
28823;DHT22;15961;54.678;9.110;2022-07-23T03:40:25;13.90;99.90
28823;DHT22;15961;54.678;9.110;2022-07-23T03:42:51;13.90;99.90
28823;DHT22;15961;54.678;9.110;2022-07-23T03:45:17;13.90;99.90
28823;DHT22;15961;54.678;9.110;2022-07-23T03:47:42;13.90;99.90
28823;DHT22;15961;54.678;9.110;2022-07-23T03:50:09;14.00;99.90
28823;DHT22;15961;54.678;9.110;2022-07-23T03:52:35;14.00;99.90
28823;DHT22;15961;54.678;9.110;2022-07-23T03:55:02;14.00;99.90
28823;DHT22;15961;54.678;9.110;2022-07-23T03:57:27;14.00;99.90
28823;DHT22;15961;54.678;9.110;2022-07-23T03:59:53;14.00;99.90
28823;DHT22;15961;54.678;9.110;2022-07-23T04:02:18;14.00;99.90
28823;DHT22;15961;54.678;9.110;2022-07-23T04:04:44;14.10;99.90
28823;DHT22;15961;54.678;9.110;2022-07-23T04:07:10;14.10;99.90
28823;DHT22;15961;54.678;9.110;2022-07-23T04:09:35;14.10;99.90
28823;DHT22;15961;54.678;9.110;2022-07-23T04:12:01;14.10;99.90
28823;DHT22;15961;54.678;9.110;2022-07-23T04:14:26;14.20;99.90
28823;DHT22;15961;54.678;9.110;2022-07-23T04:16:52;14.20;99.90
28823;DHT22;15961;54.678;9.110;2022-07-23T04:19:17;14.20;99.90
28823;DHT22;15961;54.678;9.110;2022-07-23T04:21:43;14.20;99.90
28823;DHT22;15961;54.678;9.110;2022-07-23T04:24:08;14.20;99.90
28823;DHT22;15961;54.678;9.110;2022-07-23T04:26:34;14.30;99.90
28823;DHT22;15961;54.678;9.110;2022-07-23T04:28:59;14.30;99.90
28823;DHT22;15961;54.678;9.110;2022-07-23T04:31:25;14.40;99.90
28823;DHT22;15961;54.678;9.110;2022-07-23T04:33:51;14.40;99.90
28823;DHT22;15961;54.678;9.110;2022-07-23T04:36:16;14.50;99.90
28823;DHT22;15961;54.678;9.110;2022-07-23T04:38:42;14.60;99.90
28823;DHT22;15961;54.678;9.110;2022-07-23T04:41:07;14.60;99.90
28823;DHT22;15961;54.678;9.110;2022-07-23T04:43:33;14.70;99.90
28823;DHT22;15961;54.678;9.110;2022-07-23T04:45:58;14.70;99.90
28823;DHT22;15961;54.678;9.110;2022-07-23T04:48:24;14.80;99.90
28823;DHT22;15961;54.678;9.110;2022-07-23T04:50:49;14.80;99.90
28823;DHT22;15961;54.678;9.110;2022-07-23T04:53:15;14.80;99.90
28823;DHT22;15961;54.678;9.110;2022-07-23T04:55:41;14.90;99.90
28823;DHT22;15961;54.678;9.110;2022-07-23T04:58:06;14.90;99.90
28823;DHT22;15961;54.678;9.110;2022-07-23T05:00:32;14.90;99.90
28823;DHT22;15961;54.678;9.110;2022-07-23T05:02:57;14.90;99.90
28823;DHT22;15961;54.678;9.110;2022-07-23T05:05:23;15.20;99.90
28823;DHT22;15961;54.678;9.110;2022-07-23T05:07:48;15.10;99.90
28823;DHT22;15961;54.678;9.110;2022-07-23T05:10:14;15.30;99.90
28823;DHT22;15961;54.678;9.110;2022-07-23T05:12:39;15.30;99.90
28823;DHT22;15961;54.678;9.110;2022-07-23T05:15:05;15.20;99.90
28823;DHT22;15961;54.678;9.110;2022-07-23T05:17:31;15.20;99.90
28823;DHT22;15961;54.678;9.110;2022-07-23T05:19:56;15.20;99.90
28823;DHT22;15961;54.678;9.110;2022-07-23T05:22:22;15.20;99.90
28823;DHT22;15961;54.678;9.110;2022-07-23T05:24:47;15.20;99.90
28823;DHT22;15961;54.678;9.110;2022-07-23T05:27:13;15.10;99.90
28823;DHT22;15961;54.678;9.110;2022-07-23T05:29:38;15.20;99.90
28823;DHT22;15961;54.678;9.110;2022-07-23T05:32:04;15.20;99.90
28823;DHT22;15961;54.678;9.110;2022-07-23T05:34:30;15.10;99.90
28823;DHT22;15961;54.678;9.110;2022-07-23T05:36:56;15.10;99.90
28823;DHT22;15961;54.678;9.110;2022-07-23T05:39:21;15.00;99.90
28823;DHT22;15961;54.678;9.110;2022-07-23T05:41:47;15.00;99.90
28823;DHT22;15961;54.678;9.110;2022-07-23T05:44:12;14.90;99.90
28823;DHT22;15961;54.678;9.110;2022-07-23T05:46:38;14.90;99.90
28823;DHT22;15961;54.678;9.110;2022-07-23T05:49:03;14.90;99.90
28823;DHT22;15961;54.678;9.110;2022-07-23T05:51:29;15.00;99.90
28823;DHT22;15961;54.678;9.110;2022-07-23T05:53:55;14.90;99.90
28823;DHT22;15961;54.678;9.110;2022-07-23T05:56:20;14.80;99.90
28823;DHT22;15961;54.678;9.110;2022-07-23T05:58:46;14.80;99.90
28823;DHT22;15961;54.678;9.110;2022-07-23T06:01:11;14.70;99.90
28823;DHT22;15961;54.678;9.110;2022-07-23T06:03:38;14.70;99.90
28823;DHT22;15961;54.678;9.110;2022-07-23T06:06:04;14.70;99.90
28823;DHT22;15961;54.678;9.110;2022-07-23T06:08:29;14.70;99.90
28823;DHT22;15961;54.678;9.110;2022-07-23T06:10:55;14.80;99.90
28823;DHT22;15961;54.678;9.110;2022-07-23T06:13:21;14.80;99.90
28823;DHT22;15961;54.678;9.110;2022-07-23T06:15:46;14.80;99.90
28823;DHT22;15961;54.678;9.110;2022-07-23T06:18:12;14.90;99.90
28823;DHT22;15961;54.678;9.110;2022-07-23T06:20:38;14.80;99.90
28823;DHT22;15961;54.678;9.110;2022-07-23T06:23:04;14.90;99.90
28823;DHT22;15961;54.678;9.110;2022-07-23T06:25:30;14.90;99.90
28823;DHT22;15961;54.678;9.110;2022-07-23T06:27:55;14.90;99.90
28823;DHT22;15961;54.678;9.110;2022-07-23T06:30:21;15.00;99.90
28823;DHT22;15961;54.678;9.110;2022-07-23T06:32:48;15.00;99.90
28823;DHT22;15961;54.678;9.110;2022-07-23T06:35:14;15.00;99.90
28823;DHT22;15961;54.678;9.110;2022-07-23T06:37:39;15.00;99.90
28823;DHT22;15961;54.678;9.110;2022-07-23T06:40:05;15.00;99.90
28823;DHT22;15961;54.678;9.110;2022-07-23T06:42:31;15.00;99.90
28823;DHT22;15961;54.678;9.110;2022-07-23T06:44:57;15.00;99.90
28823;DHT22;15961;54.678;9.110;2022-07-23T06:47:22;15.00;99.90
28823;DHT22;15961;54.678;9.110;2022-07-23T06:49:48;15.00;99.90
28823;DHT22;15961;54.678;9.110;2022-07-23T06:52:14;15.10;99.90
28823;DHT22;15961;54.678;9.110;2022-07-23T06:54:39;15.10;99.90
28823;DHT22;15961;54.678;9.110;2022-07-23T06:57:05;15.10;99.90
28823;DHT22;15961;54.678;9.110;2022-07-23T06:59:30;15.10;99.90
28823;DHT22;15961;54.678;9.110;2022-07-23T07:01:56;15.20;99.90
28823;DHT22;15961;54.678;9.110;2022-07-23T07:04:23;15.10;99.90
28823;DHT22;15961;54.678;9.110;2022-07-23T07:06:49;15.30;99.90
28823;DHT22;15961;54.678;9.110;2022-07-23T07:09:14;15.40;99.90
28823;DHT22;15961;54.678;9.110;2022-07-23T07:11:40;15.40;99.90
28823;DHT22;15961;54.678;9.110;2022-07-23T07:14:05;15.30;99.90
28823;DHT22;15961;54.678;9.110;2022-07-23T07:16:31;15.50;99.90
28823;DHT22;15961;54.678;9.110;2022-07-23T07:18:57;15.50;99.90
28823;DHT22;15961;54.678;9.110;2022-07-23T07:21:22;15.50;99.90
28823;DHT22;15961;54.678;9.110;2022-07-23T07:23:48;15.50;99.90
28823;DHT22;15961;54.678;9.110;2022-07-23T07:26:14;15.50;99.90
28823;DHT22;15961;54.678;9.110;2022-07-23T07:28:40;15.40;99.90
28823;DHT22;15961;54.678;9.110;2022-07-23T07:31:06;15.40;99.90
28823;DHT22;15961;54.678;9.110;2022-07-23T07:33:32;15.30;99.90
28823;DHT22;15961;54.678;9.110;2022-07-23T07:35:57;15.30;99.90
28823;DHT22;15961;54.678;9.110;2022-07-23T07:38:24;15.40;99.90
28823;DHT22;15961;54.678;9.110;2022-07-23T07:40:49;15.40;99.90
28823;DHT22;15961;54.678;9.110;2022-07-23T07:43:15;15.50;99.90
28823;DHT22;15961;54.678;9.110;2022-07-23T07:45:41;15.40;99.90
28823;DHT22;15961;54.678;9.110;2022-07-23T07:48:06;15.40;99.90
28823;DHT22;15961;54.678;9.110;2022-07-23T07:50:32;15.40;99.90
28823;DHT22;15961;54.678;9.110;2022-07-23T07:52:58;15.30;99.90
28823;DHT22;15961;54.678;9.110;2022-07-23T07:55:23;15.10;99.90
28823;DHT22;15961;54.678;9.110;2022-07-23T07:57:49;15.10;99.90
28823;DHT22;15961;54.678;9.110;2022-07-23T08:00:15;15.10;99.90
28823;DHT22;15961;54.678;9.110;2022-07-23T08:02:44;15.10;99.90
28823;DHT22;15961;54.678;9.110;2022-07-23T08:05:11;15.10;99.90
28823;DHT22;15961;54.678;9.110;2022-07-23T08:07:36;15.10;99.90
28823;DHT22;15961;54.678;9.110;2022-07-23T08:10:04;15.10;99.90
28823;DHT22;15961;54.678;9.110;2022-07-23T08:12:41;15.20;99.90
28823;DHT22;15961;54.678;9.110;2022-07-23T08:15:08;15.20;99.90
28823;DHT22;15961;54.678;9.110;2022-07-23T08:17:35;15.20;99.90
28823;DHT22;15961;54.678;9.110;2022-07-23T08:20:00;15.20;99.90
28823;DHT22;15961;54.678;9.110;2022-07-23T08:22:51;15.30;99.90
28823;DHT22;15961;54.678;9.110;2022-07-23T08:25:24;15.30;99.90
28823;DHT22;15961;54.678;9.110;2022-07-23T08:27:50;15.50;99.90
28823;DHT22;15961;54.678;9.110;2022-07-23T08:30:17;15.60;99.90
28823;DHT22;15961;54.678;9.110;2022-07-23T08:33:00;15.80;99.90
28823;DHT22;15961;54.678;9.110;2022-07-23T08:35:36;15.70;99.90
28823;DHT22;15961;54.678;9.110;2022-07-23T08:38:05;15.70;99.90
28823;DHT22;15961;54.678;9.110;2022-07-23T08:40:32;15.80;99.90
28823;DHT22;15961;54.678;9.110;2022-07-23T08:42:59;15.90;99.90
28823;DHT22;15961;54.678;9.110;2022-07-23T08:45:27;15.90;99.90
28823;DHT22;15961;54.678;9.110;2022-07-23T08:47:57;16.00;99.90
28823;DHT22;15961;54.678;9.110;2022-07-23T08:50:25;15.90;99.90
28823;DHT22;15961;54.678;9.110;2022-07-23T08:52:51;16.00;99.90
28823;DHT22;15961;54.678;9.110;2022-07-23T08:55:19;16.00;99.90
28823;DHT22;15961;54.678;9.110;2022-07-23T08:57:48;16.00;99.90
28823;DHT22;15961;54.678;9.110;2022-07-23T09:00:14;16.10;99.90
28823;DHT22;15961;54.678;9.110;2022-07-23T09:02:41;16.00;99.90
28823;DHT22;15961;54.678;9.110;2022-07-23T09:05:09;15.90;99.90
28823;DHT22;15961;54.678;9.110;2022-07-23T09:07:35;15.80;99.90
28823;DHT22;15961;54.678;9.110;2022-07-23T09:10:11;15.90;99.90
28823;DHT22;15961;54.678;9.110;2022-07-23T09:12:37;15.90;99.90
28823;DHT22;15961;54.678;9.110;2022-07-23T09:15:07;15.70;99.90
28823;DHT22;15961;54.678;9.110;2022-07-23T09:17:42;15.60;99.90
28823;DHT22;15961;54.678;9.110;2022-07-23T09:20:13;15.50;99.90
28823;DHT22;15961;54.678;9.110;2022-07-23T09:22:44;15.40;99.90
28823;DHT22;15961;54.678;9.110;2022-07-23T09:25:13;15.50;99.90
28823;DHT22;15961;54.678;9.110;2022-07-23T09:30:27;15.70;99.90
28823;DHT22;15961;54.678;9.110;2022-07-23T09:33:16;15.90;99.90
28823;DHT22;15961;54.678;9.110;2022-07-23T09:35:48;16.00;99.90
28823;DHT22;15961;54.678;9.110;2022-07-23T09:38:15;16.10;99.90
28823;DHT22;15961;54.678;9.110;2022-07-23T09:40:40;16.30;99.90
28823;DHT22;15961;54.678;9.110;2022-07-23T09:43:06;16.50;99.90
28823;DHT22;15961;54.678;9.110;2022-07-23T09:45:32;16.70;99.90
28823;DHT22;15961;54.678;9.110;2022-07-23T09:48:16;16.70;99.90
28823;DHT22;15961;54.678;9.110;2022-07-23T09:50:43;16.80;99.90
28823;DHT22;15961;54.678;9.110;2022-07-23T09:53:10;16.60;99.90
28823;DHT22;15961;54.678;9.110;2022-07-23T09:55:48;16.50;99.90
28823;DHT22;15961;54.678;9.110;2022-07-23T09:58:14;16.50;99.90
28823;DHT22;15961;54.678;9.110;2022-07-23T10:00:40;16.60;99.90
28823;DHT22;15961;54.678;9.110;2022-07-23T10:03:08;16.80;99.90
28823;DHT22;15961;54.678;9.110;2022-07-23T10:05:35;17.00;99.90
28823;DHT22;15961;54.678;9.110;2022-07-23T10:08:03;17.40;99.90
28823;DHT22;15961;54.678;9.110;2022-07-23T10:10:28;17.70;99.90
28823;DHT22;15961;54.678;9.110;2022-07-23T10:12:56;18.00;99.90
28823;DHT22;15961;54.678;9.110;2022-07-23T10:15:24;18.00;99.90
28823;DHT22;15961;54.678;9.110;2022-07-23T10:17:51;18.20;99.90
28823;DHT22;15961;54.678;9.110;2022-07-23T10:20:17;18.10;99.90
28823;DHT22;15961;54.678;9.110;2022-07-23T10:22:50;18.00;99.90
28823;DHT22;15961;54.678;9.110;2022-07-23T10:25:45;17.70;99.90
28823;DHT22;15961;54.678;9.110;2022-07-23T10:28:30;17.40;99.90
28823;DHT22;15961;54.678;9.110;2022-07-23T10:31:56;17.20;99.90
28823;DHT22;15961;54.678;9.110;2022-07-23T10:37:28;17.10;99.90
28823;DHT22;15961;54.678;9.110;2022-07-23T10:40:17;16.90;99.90
28823;DHT22;15961;54.678;9.110;2022-07-23T10:42:44;16.90;99.90
28823;DHT22;15961;54.678;9.110;2022-07-23T10:47:52;16.90;99.90
28823;DHT22;15961;54.678;9.110;2022-07-23T10:50:25;16.90;99.90
28823;DHT22;15961;54.678;9.110;2022-07-23T10:53:13;17.10;99.90
28823;DHT22;15961;54.678;9.110;2022-07-23T10:55:47;17.20;99.90
28823;DHT22;15961;54.678;9.110;2022-07-23T10:58:18;17.20;99.90
28823;DHT22;15961;54.678;9.110;2022-07-23T11:00:44;17.30;99.90
28823;DHT22;15961;54.678;9.110;2022-07-23T11:03:56;17.30;99.90
28823;DHT22;15961;54.678;9.110;2022-07-23T11:06:21;17.00;99.90
28823;DHT22;15961;54.678;9.110;2022-07-23T11:08:47;17.00;99.90
28823;DHT22;15961;54.678;9.110;2022-07-23T11:11:32;17.00;99.90
28823;DHT22;15961;54.678;9.110;2022-07-23T11:13:58;17.00;99.90
28823;DHT22;15961;54.678;9.110;2022-07-23T11:16:24;17.10;99.90
28823;DHT22;15961;54.678;9.110;2022-07-23T11:18:59;17.10;99.90
28823;DHT22;15961;54.678;9.110;2022-07-23T11:21:40;17.20;99.90
28823;DHT22;15961;54.678;9.110;2022-07-23T11:24:14;17.40;99.90
28823;DHT22;15961;54.678;9.110;2022-07-23T11:37:07;17.70;99.90
28823;DHT22;15961;54.678;9.110;2022-07-23T11:39:35;17.70;99.90
28823;DHT22;15961;54.678;9.110;2022-07-23T11:42:02;17.60;99.90
28823;DHT22;15961;54.678;9.110;2022-07-23T11:44:33;17.40;99.90
28823;DHT22;15961;54.678;9.110;2022-07-23T11:47:10;17.00;99.90
28823;DHT22;15961;54.678;9.110;2022-07-23T11:49:37;16.70;99.90
28823;DHT22;15961;54.678;9.110;2022-07-23T11:52:14;16.50;99.90
28823;DHT22;15961;54.678;9.110;2022-07-23T11:54:55;16.40;99.90
28823;DHT22;15961;54.678;9.110;2022-07-23T11:57:25;16.50;99.90
28823;DHT22;15961;54.678;9.110;2022-07-23T11:59:55;16.50;99.90
28823;DHT22;15961;54.678;9.110;2022-07-23T12:02:21;16.60;99.90
28823;DHT22;15961;54.678;9.110;2022-07-23T12:04:50;16.60;99.90
28823;DHT22;15961;54.678;9.110;2022-07-23T12:10:01;16.60;99.90
28823;DHT22;15961;54.678;9.110;2022-07-23T12:12:26;16.50;99.90
28823;DHT22;15961;54.678;9.110;2022-07-23T12:14:57;16.40;99.90
28823;DHT22;15961;54.678;9.110;2022-07-23T12:17:31;16.40;99.90
28823;DHT22;15961;54.678;9.110;2022-07-23T12:19:58;16.40;99.90
28823;DHT22;15961;54.678;9.110;2022-07-23T12:22:26;16.50;99.90
28823;DHT22;15961;54.678;9.110;2022-07-23T12:24:59;16.50;99.90
28823;DHT22;15961;54.678;9.110;2022-07-23T12:27:25;16.60;99.90
28823;DHT22;15961;54.678;9.110;2022-07-23T12:29:52;16.60;99.90
28823;DHT22;15961;54.678;9.110;2022-07-23T12:32:18;16.70;99.90
28823;DHT22;15961;54.678;9.110;2022-07-23T12:34:45;16.70;99.90
28823;DHT22;15961;54.678;9.110;2022-07-23T12:37:38;16.80;99.90
28823;DHT22;15961;54.678;9.110;2022-07-23T12:40:20;16.60;99.90
28823;DHT22;15961;54.678;9.110;2022-07-23T12:42:52;16.70;99.90
28823;DHT22;15961;54.678;9.110;2022-07-23T12:45:18;16.80;99.90
28823;DHT22;15961;54.678;9.110;2022-07-23T12:55:43;17.30;99.90
28823;DHT22;15961;54.678;9.110;2022-07-23T12:58:13;17.30;99.90
28823;DHT22;15961;54.678;9.110;2022-07-23T13:00:57;17.30;99.90
28823;DHT22;15961;54.678;9.110;2022-07-23T13:03:28;17.20;99.90
28823;DHT22;15961;54.678;9.110;2022-07-23T13:05:55;17.10;99.90
28823;DHT22;15961;54.678;9.110;2022-07-23T13:08:21;17.10;99.90
28823;DHT22;15961;54.678;9.110;2022-07-23T13:10:47;17.00;99.90
28823;DHT22;15961;54.678;9.110;2022-07-23T13:13:15;16.90;99.90
28823;DHT22;15961;54.678;9.110;2022-07-23T13:15:42;17.00;99.90
28823;DHT22;15961;54.678;9.110;2022-07-23T13:18:08;17.00;99.90
28823;DHT22;15961;54.678;9.110;2022-07-23T13:20:34;17.10;99.90
28823;DHT22;15961;54.678;9.110;2022-07-23T13:23:00;17.30;99.90
28823;DHT22;15961;54.678;9.110;2022-07-23T13:25:26;17.40;99.90
28823;DHT22;15961;54.678;9.110;2022-07-23T13:27:52;17.50;99.90
28823;DHT22;15961;54.678;9.110;2022-07-23T13:30:17;17.60;99.90
28823;DHT22;15961;54.678;9.110;2022-07-23T13:32:43;17.80;99.90
28823;DHT22;15961;54.678;9.110;2022-07-23T13:35:09;17.90;99.90
28823;DHT22;15961;54.678;9.110;2022-07-23T13:37:34;18.10;99.90
28823;DHT22;15961;54.678;9.110;2022-07-23T13:40:00;18.20;99.90
28823;DHT22;15961;54.678;9.110;2022-07-23T13:42:26;18.50;99.90
28823;DHT22;15961;54.678;9.110;2022-07-23T13:44:52;18.70;99.90
28823;DHT22;15961;54.678;9.110;2022-07-23T13:47:18;18.80;99.90
28823;DHT22;15961;54.678;9.110;2022-07-23T13:49:43;19.10;99.90
28823;DHT22;15961;54.678;9.110;2022-07-23T13:52:09;19.60;99.90
28823;DHT22;15961;54.678;9.110;2022-07-23T13:54:35;19.90;99.90
28823;DHT22;15961;54.678;9.110;2022-07-23T13:57:01;19.90;99.90
28823;DHT22;15961;54.678;9.110;2022-07-23T13:59:26;19.60;99.90
28823;DHT22;15961;54.678;9.110;2022-07-23T14:01:53;19.30;99.90
28823;DHT22;15961;54.678;9.110;2022-07-23T14:04:18;19.30;99.90
28823;DHT22;15961;54.678;9.110;2022-07-23T14:06:44;19.30;99.90
28823;DHT22;15961;54.678;9.110;2022-07-23T14:09:09;19.40;99.90
28823;DHT22;15961;54.678;9.110;2022-07-23T14:11:35;19.20;99.90
28823;DHT22;15961;54.678;9.110;2022-07-23T14:14:00;19.20;99.90
28823;DHT22;15961;54.678;9.110;2022-07-23T14:16:27;19.40;99.90
28823;DHT22;15961;54.678;9.110;2022-07-23T14:18:53;19.50;99.90
28823;DHT22;15961;54.678;9.110;2022-07-23T14:21:18;19.50;99.90
28823;DHT22;15961;54.678;9.110;2022-07-23T14:23:44;19.80;99.90
28823;DHT22;15961;54.678;9.110;2022-07-23T14:26:09;20.60;99.90
28823;DHT22;15961;54.678;9.110;2022-07-23T14:28:35;21.70;99.90
28823;DHT22;15961;54.678;9.110;2022-07-23T14:31:00;22.40;99.90
28823;DHT22;15961;54.678;9.110;2022-07-23T14:33:26;21.70;99.90
28823;DHT22;15961;54.678;9.110;2022-07-23T14:35:52;21.40;99.90
28823;DHT22;15961;54.678;9.110;2022-07-23T14:38:17;20.70;99.90
28823;DHT22;15961;54.678;9.110;2022-07-23T14:40:43;20.10;99.90
28823;DHT22;15961;54.678;9.110;2022-07-23T14:43:09;19.50;99.90
28823;DHT22;15961;54.678;9.110;2022-07-23T14:45:34;19.20;99.90
28823;DHT22;15961;54.678;9.110;2022-07-23T14:48:00;19.00;99.90
28823;DHT22;15961;54.678;9.110;2022-07-23T14:50:27;18.90;99.90
28823;DHT22;15961;54.678;9.110;2022-07-23T14:52:53;18.70;99.90
28823;DHT22;15961;54.678;9.110;2022-07-23T14:55:19;18.50;99.90
28823;DHT22;15961;54.678;9.110;2022-07-23T14:57:44;18.20;99.90
28823;DHT22;15961;54.678;9.110;2022-07-23T15:00:10;18.10;99.90
28823;DHT22;15961;54.678;9.110;2022-07-23T15:02:36;17.80;99.90
28823;DHT22;15961;54.678;9.110;2022-07-23T15:05:02;17.70;99.90
28823;DHT22;15961;54.678;9.110;2022-07-23T15:07:29;17.70;99.90
28823;DHT22;15961;54.678;9.110;2022-07-23T15:09:58;17.70;99.90
28823;DHT22;15961;54.678;9.110;2022-07-23T15:12:24;17.70;99.90
28823;DHT22;15961;54.678;9.110;2022-07-23T15:14:49;18.00;99.90
28823;DHT22;15961;54.678;9.110;2022-07-23T15:17:15;18.20;99.90
28823;DHT22;15961;54.678;9.110;2022-07-23T15:19:41;18.30;99.90
28823;DHT22;15961;54.678;9.110;2022-07-23T15:22:06;18.40;99.90
28823;DHT22;15961;54.678;9.110;2022-07-23T15:24:32;18.60;99.90
28823;DHT22;15961;54.678;9.110;2022-07-23T15:26:58;18.50;99.90
28823;DHT22;15961;54.678;9.110;2022-07-23T15:29:24;18.40;99.90
28823;DHT22;15961;54.678;9.110;2022-07-23T15:31:49;18.20;99.90
28823;DHT22;15961;54.678;9.110;2022-07-23T15:34:15;17.90;99.90
28823;DHT22;15961;54.678;9.110;2022-07-23T15:36:41;18.50;99.90
28823;DHT22;15961;54.678;9.110;2022-07-23T15:39:07;18.50;99.90
28823;DHT22;15961;54.678;9.110;2022-07-23T15:41:33;18.00;99.90
28823;DHT22;15961;54.678;9.110;2022-07-23T15:43:59;17.70;99.90
28823;DHT22;15961;54.678;9.110;2022-07-23T15:46:25;17.60;99.90
28823;DHT22;15961;54.678;9.110;2022-07-23T15:48:51;17.60;99.90
28823;DHT22;15961;54.678;9.110;2022-07-23T15:51:17;17.60;99.90
28823;DHT22;15961;54.678;9.110;2022-07-23T15:53:43;17.60;99.90
28823;DHT22;15961;54.678;9.110;2022-07-23T15:56:09;17.40;99.90
28823;DHT22;15961;54.678;9.110;2022-07-23T15:58:36;17.40;99.90
28823;DHT22;15961;54.678;9.110;2022-07-23T16:01:02;17.40;99.90